Time;durP1;ratioP1;P1;durP2;ratioP2;P2;SDS_P1;SDS_P2;PMS_P1;PMS_P2;Temp;Humidity;BMP_temperature;BMP_pressure;BME280_temperature;BME280_humidity;BME280_pressure;Samples;Min_cycle;Max_cycle;Signal;HPM_P1;HPM_P2
2024/02/16 00:02:54;;;;;;;26.20;17.90;;;;;;;8.35;86.44;99275.31;226708;1274;22557;-76
2024/02/16 00:07:59;;;;;;;22.60;15.90;;;;;;;8.33;86.42;99277.98;226788;1274;22531;-75
2024/02/16 00:13:02;;;;;;;24.00;15.40;;;;;;;8.31;86.20;99281.45;226754;1272;22543;-75
2024/02/16 00:18:07;;;;;;;22.50;16.30;;;;;;;8.29;86.05;99283.09;226566;1274;23033;-74
2024/02/16 00:23:10;;;;;;;24.30;17.00;;;;;;;8.24;86.16;99278.93;226751;1271;22612;-75
2024/02/16 00:28:12;;;;;;;25.30;17.20;;;;;;;8.15;86.00;99276.48;226756;1272;24351;-74
2024/02/16 00:33:14;;;;;;;25.20;18.50;;;;;;;8.06;85.75;99270.05;226844;1270;23004;-75
2024/02/16 00:38:16;;;;;;;29.10;19.40;;;;;;;7.93;85.98;99264.92;226705;1274;22545;-74
2024/02/16 00:43:22;;;;;;;25.10;18.00;;;;;;;7.77;85.63;99256.83;226735;1274;22589;-75
2024/02/16 00:48:24;;;;;;;27.00;19.10;;;;;;;7.61;85.92;99255.45;226767;1275;22559;-75
2024/02/16 00:53:27;;;;;;;27.90;18.40;;;;;;;7.47;85.97;99251.20;226797;1274;22547;-75
2024/02/16 00:58:29;;;;;;;24.20;15.80;;;;;;;7.33;85.93;99250.80;226826;1275;22552;-77
2024/02/16 01:03:31;;;;;;;22.00;14.80;;;;;;;7.22;86.27;99257.20;226753;1273;22570;-75
2024/02/16 01:08:33;;;;;;;22.10;14.60;;;;;;;7.13;86.36;99256.85;226864;1257;22570;-75
2024/02/16 01:13:35;;;;;;;19.70;13.50;;;;;;;7.06;86.17;99261.99;226499;1275;22579;-75
2024/02/16 01:18:38;;;;;;;18.10;11.90;;;;;;;6.97;86.48;99253.42;226804;1273;23441;-75
2024/02/16 01:23:40;;;;;;;18.80;12.40;;;;;;;6.89;86.51;99254.25;226797;1271;22547;-75
2024/02/16 01:28:42;;;;;;;19.80;12.40;;;;;;;6.81;86.59;99253.66;226744;1273;23054;-74
2024/02/16 01:33:44;;;;;;;16.20;12.30;;;;;;;6.73;86.15;99255.27;226575;1275;24254;-75
2024/02/16 01:38:46;;;;;;;20.00;13.10;;;;;;;6.64;86.62;99253.40;226839;1275;22556;-76
2024/02/16 01:43:52;;;;;;;17.30;12.20;;;;;;;6.55;86.41;99248.33;226766;1272;22543;-76
2024/02/16 01:48:55;;;;;;;15.60;11.20;;;;;;;6.45;86.50;99241.97;226813;1272;22526;-75
2024/02/16 01:53:57;;;;;;;16.60;11.70;;;;;;;6.37;86.76;99237.66;226753;1275;22563;-75
2024/02/16 01:58:59;;;;;;;14.80;10.90;;;;;;;6.30;86.59;99233.23;226853;1275;23655;-74
2024/02/16 02:04:02;;;;;;;17.80;10.20;;;;;;;6.23;86.86;99231.00;226881;1274;22541;-75
2024/02/16 02:09:04;;;;;;;16.10;10.50;;;;;;;6.18;87.26;99227.98;226647;1275;22590;-75
2024/02/16 02:14:06;;;;;;;14.70;9.90;;;;;;;6.13;86.97;99226.23;226624;1273;254805;-75
2024/02/16 02:19:08;;;;;;;14.50;10.20;;;;;;;6.08;87.09;99225.11;226821;1272;22527;-74
2024/02/16 02:24:10;;;;;;;13.60;9.70;;;;;;;6.05;87.28;99224.78;226771;1273;24433;-75
2024/02/16 02:29:13;;;;;;;14.90;9.40;;;;;;;6.00;87.02;99221.02;226862;1273;22671;-75
2024/02/16 02:34:15;;;;;;;14.00;10.20;;;;;;;5.95;87.19;99224.48;226734;1272;25334;-76
2024/02/16 02:39:16;;;;;;;14.30;10.50;;;;;;;5.89;87.47;99223.66;226750;1272;22618;-75
2024/02/16 02:44:21;;;;;;;12.90;10.20;;;;;;;5.84;87.45;99222.00;226803;1275;22578;-75
2024/02/16 02:49:23;;;;;;;16.30;10.60;;;;;;;5.79;87.53;99221.30;226827;1273;22540;-75
2024/02/16 02:54:25;;;;;;;15.70;10.40;;;;;;;5.76;87.68;99220.25;226940;1270;24241;-75
2024/02/16 02:59:28;;;;;;;14.60;10.40;;;;;;;5.71;87.71;99216.45;226927;1275;22578;-75
2024/02/16 03:04:29;;;;;;;17.00;12.40;;;;;;;5.67;87.73;99217.45;226846;1267;22554;-75
2024/02/16 03:09:31;;;;;;;23.90;17.80;;;;;;;5.65;87.85;99217.39;226837;1272;24231;-75
2024/02/16 03:14:34;;;;;;;21.40;18.00;;;;;;;5.61;87.91;99214.27;226866;1272;22555;-74
2024/02/16 03:19:36;;;;;;;25.40;19.20;;;;;;;5.57;87.74;99210.33;226836;1273;22553;-75
2024/02/16 03:24:38;;;;;;;22.60;15.80;;;;;;;5.54;88.13;99210.40;226764;1274;24263;-75
2024/02/16 03:29:40;;;;;;;21.90;16.00;;;;;;;5.50;88.08;99212.30;226843;1270;22558;-75
2024/02/16 03:34:42;;;;;;;26.70;17.80;;;;;;;5.47;88.22;99211.55;226793;1273;22543;-74
2024/02/16 03:39:44;;;;;;;27.00;19.70;;;;;;;5.45;87.96;99217.33;226699;1274;22644;-75
2024/02/16 03:44:46;;;;;;;23.30;18.20;;;;;;;5.41;88.00;99215.68;226824;1271;22546;-73
2024/02/16 03:49:48;;;;;;;22.80;16.70;;;;;;;5.34;88.23;99218.39;226916;1274;22539;-75
2024/02/16 03:54:51;;;;;;;25.00;17.70;;;;;;;5.27;88.24;99224.29;226782;1273;22543;-76
2024/02/16 03:59:54;;;;;;;25.80;19.40;;;;;;;5.22;88.26;99221.98;226862;1271;22539;-75
2024/02/16 04:04:56;;;;;;;27.50;19.50;;;;;;;5.15;87.92;99224.33;226782;1272;25038;-75
2024/02/16 04:09:58;;;;;;;32.90;22.60;;;;;;;5.09;88.30;99227.04;226779;1273;22563;-75
2024/02/16 04:15:00;;;;;;;33.30;20.10;;;;;;;5.02;88.40;99221.39;226714;1274;24248;-75
2024/02/16 04:20:03;;;;;;;30.70;20.70;;;;;;;4.96;88.42;99223.02;226919;1274;22549;-75
2024/02/16 04:25:06;;;;;;;30.80;21.30;;;;;;;4.87;88.19;99223.11;226894;1273;24892;-74
2024/02/16 04:30:08;;;;;;;29.70;20.80;;;;;;;4.77;88.12;99223.70;226891;1272;22568;-74
2024/02/16 04:35:11;;;;;;;32.30;21.20;;;;;;;4.66;88.11;99227.13;226742;1272;25463;-74
2024/02/16 04:40:14;;;;;;;37.80;24.00;;;;;;;4.52;87.80;99233.96;226940;1274;22530;-74
2024/02/16 04:45:17;;;;;;;36.40;24.70;;;;;;;4.41;88.04;99233.46;226742;1273;22555;-76
2024/02/16 04:50:19;;;;;;;38.00;25.30;;;;;;;4.30;87.79;99232.56;226858;1273;25257;-76
2024/02/16 04:55:21;;;;;;;34.60;21.90;;;;;;;4.20;87.91;99233.04;226724;1273;22560;-75
2024/02/16 05:00:23;;;;;;;33.70;21.80;;;;;;;4.10;87.96;99225.59;226746;1269;22535;-76
2024/02/16 05:05:25;;;;;;;32.20;21.90;;;;;;;4.03;88.04;99225.57;226830;1273;22580;-76
2024/02/16 05:10:28;;;;;;;32.40;24.00;;;;;;;3.95;88.16;99231.64;226944;1273;22564;-77
2024/02/16 05:15:31;;;;;;;33.80;25.80;;;;;;;3.89;88.23;99222.92;226889;1275;22542;-74
2024/02/16 05:20:33;;;;;;;41.80;31.20;;;;;;;3.84;88.38;99216.61;226719;1273;22560;-74
2024/02/16 05:25:35;;;;;;;49.60;36.80;;;;;;;3.81;88.53;99216.66;226769;1273;22544;-75
2024/02/16 05:30:37;;;;;;;49.70;37.30;;;;;;;3.78;88.65;99219.86;226733;1273;22675;-75
2024/02/16 05:35:40;;;;;;;54.80;39.30;;;;;;;3.75;88.58;99215.94;226900;1272;22561;-75
2024/02/16 05:40:53;;;;;;;60.80;40.90;;;;;;;3.71;88.73;99224.48;226715;1273;22581;-75
2024/02/16 05:46:13;;;;;;;53.30;37.50;;;;;;;3.67;88.86;99224.84;226918;1267;22658;-75
2024/02/16 05:51:36;;;;;;;51.90;35.80;;;;;;;3.65;88.99;99226.32;226958;1271;23268;-77
2024/02/16 05:56:56;;;;;;;63.50;41.00;;;;;;;3.60;88.86;99230.70;226861;1272;22551;-75
2024/02/16 06:02:15;;;;;;;59.40;42.90;;;;;;;3.55;88.85;99236.73;226817;1269;25095;-75
2024/02/16 06:07:37;;;;;;;68.90;45.10;;;;;;;3.51;88.95;99238.13;226938;1273;22549;-75
2024/02/16 06:12:59;;;;;;;67.90;43.70;;;;;;;3.50;88.91;99244.96;226846;1267;22555;-74
2024/02/16 06:18:19;;;;;;;62.00;38.60;;;;;;;3.52;89.31;99245.66;226951;1272;22551;-76
2024/02/16 06:23:33;;;;;;;55.50;40.00;;;;;;;3.56;89.14;99247.14;226695;1273;23160;-75
2024/02/16 06:28:35;;;;;;;64.40;41.00;;;;;;;3.56;88.96;99245.55;226881;1271;22547;-75
2024/02/16 06:33:37;;;;;;;65.80;43.60;;;;;;;3.59;89.04;99243.69;226880;1272;24263;-75
2024/02/16 06:38:39;;;;;;;57.30;39.90;;;;;;;3.63;89.32;99247.18;226851;1268;25420;-74
2024/02/16 06:43:42;;;;;;;56.20;38.80;;;;;;;3.74;89.40;99252.48;226892;1272;22554;-76
2024/02/16 06:48:44;;;;;;;60.30;40.60;;;;;;;3.82;89.37;99254.40;226778;1273;22601;-74
2024/02/16 06:53:47;;;;;;;59.60;42.40;;;;;;;3.91;89.47;99256.36;226514;1272;22552;-75
2024/02/16 06:58:49;;;;;;;69.40;46.20;;;;;;;4.05;89.67;99261.10;226804;1267;22594;-77
2024/02/16 07:03:51;;;;;;;56.10;40.10;;;;;;;4.27;89.96;99265.92;226546;1272;22538;-76
2024/02/16 07:08:54;;;;;;;57.00;42.40;;;;;;;4.45;90.05;99269.57;226817;1253;22562;-77
2024/02/16 07:13:56;;;;;;;73.60;54.20;;;;;;;4.67;90.19;99267.17;226605;1259;22559;-76
2024/02/16 07:18:58;;;;;;;58.30;41.70;;;;;;;4.88;89.79;99268.07;226472;1272;24235;-77
2024/02/16 07:24:01;;;;;;;55.40;39.60;;;;;;;5.11;90.15;99269.44;226291;1270;22554;-81
2024/02/16 07:29:03;;;;;;;57.00;41.40;;;;;;;5.48;90.08;99280.66;226309;1267;22555;-82
2024/02/16 07:34:05;;;;;;;50.90;37.60;;;;;;;5.68;89.46;99280.89;226596;1273;22540;-82
2024/02/16 07:39:11;;;;;;;50.60;35.70;;;;;;;5.84;89.43;99276.23;226491;1260;22556;-82
2024/02/16 07:44:15;;;;;;;46.10;33.40;;;;;;;6.04;89.36;99279.23;226588;1255;22799;-80
2024/02/16 07:49:17;;;;;;;43.50;31.40;;;;;;;6.24;89.28;99273.77;226573;1268;22589;-78
2024/02/16 07:54:20;;;;;;;43.50;31.40;;;;;;;6.47;89.53;99273.83;226393;1261;24273;-78
2024/02/16 07:59:23;;;;;;;41.30;29.30;;;;;;;6.67;88.70;99271.83;226126;1273;25519;-76
2024/02/16 08:04:25;;;;;;;34.50;25.10;;;;;;;6.90;89.10;99268.52;226218;1267;22558;-77
2024/02/16 08:09:28;;;;;;;34.70;23.20;;;;;;;7.12;88.53;99264.50;225707;1269;24243;-77
2024/02/16 08:14:32;;;;;;;26.30;19.10;;;;;;;7.36;88.23;99256.95;225871;1266;22558;-76
2024/02/16 08:19:36;;;;;;;23.80;17.70;;;;;;;7.60;88.15;99253.67;225802;1274;22552;-77
2024/02/16 08:24:39;;;;;;;24.70;17.50;;;;;;;7.81;88.03;99253.39;225967;1273;22540;-77
2024/02/16 08:29:43;;;;;;;25.60;19.00;;;;;;;8.00;87.95;99255.10;226066;1273;22552;-77
2024/02/16 08:34:45;;;;;;;26.00;18.60;;;;;;;8.18;87.48;99252.46;226524;1256;23624;-77
2024/02/16 08:39:48;;;;;;;24.10;19.70;;;;;;;8.35;87.01;99255.05;226914;1271;22701;-76
2024/02/16 08:44:50;;;;;;;28.60;19.90;;;;;;;8.55;87.28;99254.55;226952;1271;22553;-76
2024/02/16 08:49:52;;;;;;;21.50;16.40;;;;;;;8.76;86.99;99254.34;226809;1271;25026;-76
2024/02/16 08:54:54;;;;;;;26.50;17.10;;;;;;;8.95;86.29;99253.21;226805;1268;22687;-76
2024/02/16 08:59:56;;;;;;;25.90;16.70;;;;;;;9.12;86.09;99252.39;226990;1274;24575;-76
2024/02/16 09:04:59;;;;;;;25.10;16.30;;;;;;;9.28;85.91;99247.98;226808;1275;22550;-77
2024/02/16 09:10:01;;;;;;;17.70;13.20;;;;;;;9.47;85.56;99247.45;226629;1273;22547;-78
2024/02/16 09:15:05;;;;;;;25.90;14.70;;;;;;;9.63;85.04;99246.37;226521;1273;22591;-77
2024/02/16 09:20:10;;;;;;;20.90;14.90;;;;;;;9.77;84.59;99251.98;226544;1272;25372;-76
2024/02/16 09:25:14;;;;;;;17.10;13.60;;;;;;;9.94;84.36;99252.58;226661;1266;23555;-77
2024/02/16 09:30:16;;;;;;;18.30;13.70;;;;;;;10.11;83.94;99255.84;226929;1271;22554;-78
2024/02/16 09:35:19;;;;;;;21.20;14.90;;;;;;;10.23;83.38;99255.33;226862;1268;22551;-77
2024/02/16 09:40:22;;;;;;;20.80;14.90;;;;;;;10.36;83.25;99257.77;226653;1268;22543;-78
2024/02/16 09:45:27;;;;;;;18.80;13.30;;;;;;;10.51;82.98;99251.88;226656;1268;22544;-76
2024/02/16 09:50:29;;;;;;;15.80;11.80;;;;;;;10.69;82.75;99251.19;226803;1271;22549;-80
2024/02/16 09:55:33;;;;;;;13.20;9.30;;;;;;;10.87;82.08;99252.27;226650;1269;22547;-81
2024/02/16 10:00:35;;;;;;;14.40;9.70;;;;;;;11.07;81.81;99246.31;226201;1255;22555;-80
2024/02/16 10:05:38;;;;;;;12.50;8.80;;;;;;;11.26;81.09;99247.95;226210;1268;22575;-80
2024/02/16 10:10:40;;;;;;;11.80;8.30;;;;;;;11.46;80.87;99246.29;226265;1268;22802;-80
2024/02/16 10:15:42;;;;;;;13.70;9.70;;;;;;;11.59;79.92;99247.05;226595;1274;25887;-79
2024/02/16 10:20:44;;;;;;;11.30;7.60;;;;;;;11.77;80.01;99246.57;226584;1264;22545;-79
2024/02/16 10:25:47;;;;;;;11.30;7.80;;;;;;;11.94;79.67;99242.39;226490;1265;22559;-79
2024/02/16 10:30:49;;;;;;;11.40;7.50;;;;;;;12.11;79.39;99239.98;226534;1271;22535;-81
2024/02/16 10:35:52;;;;;;;10.60;6.10;;;;;;;12.29;78.30;99239.21;226377;1268;23093;-79
2024/02/16 10:40:57;;;;;;;5.20;4.20;;;;;;;12.45;77.70;99233.30;226306;1268;22527;-78
2024/02/16 10:45:59;;;;;;;4.80;4.10;;;;;;;12.60;76.36;99233.98;226742;1252;22575;-77
2024/02/16 10:51:02;;;;;;;6.50;4.40;;;;;;;12.58;75.24;99227.45;226858;1271;23056;-77
2024/02/16 10:56:07;;;;;;;7.30;4.70;;;;;;;12.59;75.09;99224.84;226744;1265;22544;-76
2024/02/16 11:01:12;;;;;;;9.20;5.20;;;;;;;12.66;74.44;99222.89;226488;1268;22546;-75
2024/02/16 11:06:32;;;;;;;7.30;4.70;;;;;;;12.76;74.46;99222.79;226091;1274;22580;-77
2024/02/16 11:11:36;;;;;;;5.80;4.70;;;;;;;12.90;74.33;99213.96;226333;1276;22539;-79
2024/02/16 11:16:45;;;;;;;6.40;4.10;;;;;;;13.00;73.61;99202.54;226233;1268;22549;-74
2024/02/16 11:21:59;;;;;;;6.10;4.40;;;;;;;13.10;73.68;99198.45;226393;1269;22614;-77
2024/02/16 11:27:05;;;;;;;6.30;4.70;;;;;;;13.25;73.80;99196.05;226357;1275;24619;-82
2024/02/16 11:32:07;;;;;;;6.10;4.40;;;;;;;13.39;73.16;99197.06;226438;1271;22582;-81
2024/02/16 11:37:17;;;;;;;11.30;4.00;;;;;;;13.47;71.94;99187.96;226611;1268;22539;-83
2024/02/16 11:42:19;;;;;;;9.00;5.30;;;;;;;13.52;71.95;99185.30;226865;1267;22542;-80
2024/02/16 11:47:27;;;;;;;6.60;4.30;;;;;;;13.68;71.52;99186.17;226724;1274;22714;-83
2024/02/16 11:52:34;;;;;;;9.10;4.80;;;;;;;13.72;70.20;99185.66;226531;1267;22574;-83
2024/02/16 11:57:38;;;;;;;4.80;4.10;;;;;;;13.74;70.75;99180.65;226880;1268;22663;-83
2024/02/16 12:02:40;;;;;;;6.20;4.00;;;;;;;13.84;70.87;99180.42;226805;1274;22571;-84
2024/02/16 12:07:44;;;;;;;5.70;4.00;;;;;;;13.90;69.46;99179.98;226561;1268;25424;-81
2024/02/16 12:12:47;;;;;;;7.60;4.20;;;;;;;13.90;68.73;99179.69;226578;1265;22542;-81
2024/02/16 12:18:01;;;;;;;5.60;4.30;;;;;;;13.94;68.76;99177.77;226655;1271;22558;-75
2024/02/16 12:23:12;;;;;;;7.60;5.00;;;;;;;14.03;69.00;99175.88;226546;1274;23023;-77
2024/02/16 12:28:15;;;;;;;5.60;4.30;;;;;;;14.07;68.19;99173.33;226497;1252;23663;-77
2024/02/16 12:33:17;;;;;;;5.00;3.90;;;;;;;14.09;67.76;99167.23;226465;1270;22584;-78
2024/02/16 12:38:20;;;;;;;6.70;4.80;;;;;;;14.11;67.48;99157.02;226446;1268;22534;-78
2024/02/16 12:43:22;;;;;;;6.70;4.80;;;;;;;14.15;68.43;99147.83;226845;1274;22559;-78
2024/02/16 12:48:24;;;;;;;6.80;4.30;;;;;;;14.25;68.13;99149.77;226817;1271;22557;-77
2024/02/16 12:53:28;;;;;;;6.10;4.20;;;;;;;14.30;67.17;99147.64;226746;1268;22627;-79
2024/02/16 12:58:30;;;;;;;8.00;4.80;;;;;;;14.31;67.27;99147.08;226626;1271;22543;-78
2024/02/16 13:03:36;;;;;;;8.10;4.60;;;;;;;14.39;67.47;99140.43;226683;1253;22622;-77
2024/02/16 13:08:38;;;;;;;7.80;4.70;;;;;;;14.45;67.34;99132.23;226735;1271;22545;-78
2024/02/16 13:13:40;;;;;;;6.00;4.60;;;;;;;14.48;66.88;99132.77;226708;1273;22546;-78
2024/02/16 13:18:42;;;;;;;6.70;4.10;;;;;;;14.52;67.09;99124.34;226784;1263;22553;-78
2024/02/16 13:23:44;;;;;;;5.40;4.10;;;;;;;14.60;67.33;99123.10;226787;1271;22563;-78
2024/02/16 13:29:04;;;;;;;5.70;3.90;;;;;;;14.62;66.25;99115.01;226687;1273;22582;-75
2024/02/16 13:34:06;;;;;;;5.10;3.80;;;;;;;14.63;66.43;99106.95;226666;1268;22554;-74
2024/02/16 13:39:08;;;;;;;8.90;6.80;;;;;;;14.65;66.12;99107.40;226695;1268;22549;-74
2024/02/16 13:44:10;;;;;;;8.00;4.70;;;;;;;14.63;66.00;99100.36;226459;1252;22567;-75
2024/02/16 13:49:29;;;;;;;6.40;3.40;;;;;;;14.63;65.52;99097.65;226487;1271;22554;-75
2024/02/16 13:54:49;;;;;;;6.10;3.60;;;;;;;14.61;64.73;99102.93;226548;1268;22554;-74
2024/02/16 14:00:12;;;;;;;4.20;2.90;;;;;;;14.55;64.58;99100.68;226587;1271;25415;-74
2024/02/16 14:05:32;;;;;;;3.90;3.40;;;;;;;14.53;64.49;99099.42;226411;1271;22601;-72
2024/02/16 14:10:52;;;;;;;5.70;3.10;;;;;;;14.49;64.67;99100.54;226265;1255;202554;-75
2024/02/16 14:15:54;;;;;;;6.30;3.30;;;;;;;14.44;64.93;99095.38;226413;1268;23029;-75
2024/02/16 14:20:56;;;;;;;4.10;3.30;;;;;;;14.40;65.35;99099.52;226217;1274;22590;-76
2024/02/16 14:25:59;;;;;;;3.80;3.10;;;;;;;14.32;64.67;99095.70;226328;1274;22653;-76
2024/02/16 14:31:02;;;;;;;4.90;3.20;;;;;;;14.22;64.72;99096.41;226352;1271;22542;-76
2024/02/16 14:36:05;;;;;;;4.60;3.20;;;;;;;14.13;64.62;99096.02;226580;1271;22585;-75
2024/02/16 14:41:08;;;;;;;6.70;4.60;;;;;;;14.02;64.68;99091.11;226576;1264;22525;-76
2024/02/16 14:46:10;;;;;;;7.40;3.30;;;;;;;13.92;65.07;99088.73;226639;1262;22594;-75
2024/02/16 14:51:12;;;;;;;5.60;3.50;;;;;;;13.82;65.01;99090.83;226667;1255;24216;-74
2024/02/16 14:56:14;;;;;;;9.40;5.40;;;;;;;13.70;64.94;99087.69;226626;1264;22661;-73
2024/02/16 15:01:16;;;;;;;5.10;3.00;;;;;;;13.61;65.00;99090.20;226309;1263;22551;-74
2024/02/16 15:06:18;;;;;;;4.80;2.80;;;;;;;13.52;65.14;99095.11;226512;1271;24278;-74
2024/02/16 15:11:20;;;;;;;4.40;3.40;;;;;;;13.41;65.27;99090.66;226418;1272;22555;-75
2024/02/16 15:16:22;;;;;;;4.50;3.30;;;;;;;13.28;65.25;99090.20;226364;1274;25393;-75
2024/02/16 15:21:24;;;;;;;12.70;9.80;;;;;;;13.15;65.66;99087.31;226352;1273;23021;-74
2024/02/16 15:26:26;;;;;;;5.60;3.50;;;;;;;13.00;65.97;99083.58;226417;1274;22589;-74
2024/02/16 15:31:28;;;;;;;4.50;3.90;;;;;;;12.84;66.02;99079.37;226681;1274;23434;-74
2024/02/16 15:36:30;;;;;;;6.50;4.20;;;;;;;12.68;66.32;99077.77;226638;1273;22598;-75
2024/02/16 15:41:32;;;;;;;9.10;4.30;;;;;;;12.50;66.52;99079.46;226662;1274;22574;-74
2024/02/16 15:46:34;;;;;;;6.50;4.20;;;;;;;12.32;66.63;99077.38;226732;1272;22546;-74
2024/02/16 15:51:36;;;;;;;8.10;4.70;;;;;;;12.14;66.90;99076.85;226746;1274;22551;-74
2024/02/16 15:56:39;;;;;;;11.30;6.10;;;;;;;11.93;67.07;99079.77;226733;1274;23145;-73
2024/02/16 16:01:40;;;;;;;7.30;5.40;;;;;;;11.73;67.46;99081.09;226704;1275;22544;-74
2024/02/16 16:06:44;;;;;;;15.20;5.90;;;;;;;11.54;67.74;99079.77;226625;1274;22547;-73
2024/02/16 16:11:46;;;;;;;8.30;5.20;;;;;;;11.36;68.13;99077.64;226695;1271;22553;-74
2024/02/16 16:16:53;;;;;;;7.60;4.50;;;;;;;11.18;68.29;99079.19;226745;1271;22557;-75
2024/02/16 16:21:56;;;;;;;7.10;4.70;;;;;;;11.04;68.61;99085.67;226749;1272;23084;-74
2024/02/16 16:26:58;;;;;;;8.10;5.70;;;;;;;10.91;68.90;99088.34;226678;1271;22586;-74
2024/02/16 16:32:03;;;;;;;8.80;5.40;;;;;;;10.79;69.12;99085.53;226612;1274;22550;-74
2024/02/16 16:37:05;;;;;;;9.20;5.20;;;;;;;10.67;69.17;99090.35;226604;1274;22627;-75
2024/02/16 16:42:07;;;;;;;10.70;5.20;;;;;;;10.52;69.37;99098.22;226757;1272;22545;-75
2024/02/16 16:47:12;;;;;;;8.00;4.80;;;;;;;10.35;69.73;99106.63;226628;1274;22800;-75
2024/02/16 16:52:14;;;;;;;8.30;5.10;;;;;;;10.17;70.12;99109.89;226635;1271;22601;-73
2024/02/16 16:57:18;;;;;;;9.80;6.10;;;;;;;10.00;70.27;99111.70;226659;1274;22543;-76
2024/02/16 17:02:21;;;;;;;10.50;7.10;;;;;;;9.84;70.46;99119.12;226672;1269;22647;-74
2024/02/16 17:07:23;;;;;;;11.60;7.20;;;;;;;9.71;70.59;99123.82;226686;1272;24291;-75
2024/02/16 17:12:26;;;;;;;19.20;9.90;;;;;;;9.56;71.02;99127.77;226717;1271;22565;-74
2024/02/16 17:17:30;;;;;;;19.10;12.60;;;;;;;9.42;71.51;99126.88;226482;1274;22546;-73
2024/02/16 17:22:32;;;;;;;24.80;14.70;;;;;;;9.30;71.77;99136.36;226644;1269;22560;-73
2024/02/16 17:27:35;;;;;;;25.30;15.00;;;;;;;9.22;72.09;99139.22;226781;1271;22535;-73
2024/02/16 17:32:41;;;;;;;30.10;18.00;;;;;;;9.09;72.02;99138.30;226797;1274;24292;-74
2024/02/16 17:37:45;;;;;;;33.40;18.00;;;;;;;8.96;72.43;99136.10;226606;1271;22593;-72
2024/02/16 17:42:48;;;;;;;26.50;14.80;;;;;;;8.83;72.62;99139.23;226758;1271;22539;-72
2024/02/16 17:47:54;;;;;;;19.40;11.50;;;;;;;8.75;72.88;99141.55;226726;1275;22555;-73
2024/02/16 17:52:56;;;;;;;15.30;10.30;;;;;;;8.77;73.05;99143.42;226657;1275;22718;-74
2024/02/16 17:57:58;;;;;;;13.10;9.10;;;;;;;8.76;73.14;99144.98;226712;1273;22557;-73
2024/02/16 18:03:02;;;;;;;14.20;8.50;;;;;;;8.72;73.36;99143.17;226728;1273;22558;-75
2024/02/16 18:08:04;;;;;;;11.00;7.50;;;;;;;8.74;73.69;99147.68;226716;1271;22554;-74
2024/02/16 18:13:06;;;;;;;13.20;8.70;;;;;;;8.77;73.65;99152.05;226724;1271;22564;-73
2024/02/16 18:18:08;;;;;;;12.20;7.40;;;;;;;8.83;74.02;99151.45;226658;1273;22544;-73
2024/02/16 18:23:11;;;;;;;12.10;7.40;;;;;;;8.85;73.52;99156.30;226674;1266;22562;-72
2024/02/16 18:28:13;;;;;;;13.40;8.60;;;;;;;8.89;73.69;99161.70;226700;1272;22561;-73
2024/02/16 18:33:22;;;;;;;13.80;8.40;;;;;;;8.89;73.86;99163.05;226671;1272;22595;-73
2024/02/16 18:38:25;;;;;;;15.00;9.70;;;;;;;8.86;73.99;99166.77;226518;1274;22584;-73
2024/02/16 18:43:27;;;;;;;14.90;9.40;;;;;;;8.81;73.64;99163.40;226667;1274;22544;-72
2024/02/16 18:48:29;;;;;;;15.30;9.30;;;;;;;8.82;74.19;99161.20;226719;1272;22569;-72
2024/02/16 18:53:31;;;;;;;13.40;8.50;;;;;;;8.86;74.26;99158.52;226684;1274;22611;-73
2024/02/16 18:58:33;;;;;;;12.20;8.20;;;;;;;8.94;74.59;99161.27;226753;1272;22543;-72
2024/02/16 19:03:36;;;;;;;11.00;7.40;;;;;;;8.97;73.93;99160.62;226708;1274;22660;-74
2024/02/16 19:08:38;;;;;;;11.60;7.30;;;;;;;8.99;74.61;99155.73;226671;1273;22570;-74
2024/02/16 19:13:40;;;;;;;12.70;7.50;;;;;;;9.03;74.37;99151.55;226692;1272;22658;-75
2024/02/16 19:18:44;;;;;;;12.10;7.20;;;;;;;9.06;74.32;99149.20;226694;1272;22557;-73
2024/02/16 19:23:46;;;;;;;11.90;7.40;;;;;;;9.06;74.20;99150.75;226783;1272;23337;-74
2024/02/16 19:28:48;;;;;;;11.10;7.20;;;;;;;9.06;74.10;99150.30;226549;1274;25277;-74
2024/02/16 19:33:50;;;;;;;10.10;7.20;;;;;;;9.06;74.36;99156.30;226798;1271;22591;-73
2024/02/16 19:38:55;;;;;;;11.60;7.30;;;;;;;9.10;74.32;99154.93;226712;1272;22678;-73
2024/02/16 19:43:57;;;;;;;10.40;6.50;;;;;;;9.15;74.50;99153.78;226314;1274;22550;-74
2024/02/16 19:48:59;;;;;;;9.80;6.70;;;;;;;9.19;74.37;99158.19;226765;1272;23031;-74
2024/02/16 19:54:03;;;;;;;11.30;7.30;;;;;;;9.21;74.30;99160.20;226765;1271;22555;-73
2024/02/16 19:59:05;;;;;;;10.30;6.40;;;;;;;9.24;74.33;99165.14;226729;1273;22539;-73
2024/02/16 20:04:07;;;;;;;10.90;7.10;;;;;;;9.25;74.11;99168.54;226719;1272;23276;-75
2024/02/16 20:09:11;;;;;;;11.00;6.60;;;;;;;9.23;74.19;99169.63;226780;1272;22541;-73
2024/02/16 20:14:13;;;;;;;13.00;7.00;;;;;;;9.20;73.93;99170.66;226788;1271;22675;-73
2024/02/16 20:19:15;;;;;;;10.50;7.10;;;;;;;9.19;74.17;99171.02;226688;1274;22548;-73
2024/02/16 20:24:19;;;;;;;9.90;6.90;;;;;;;9.16;74.15;99168.48;226540;1274;22546;-73
2024/02/16 20:29:22;;;;;;;10.10;6.00;;;;;;;9.15;74.07;99163.73;226720;1274;22552;-73
2024/02/16 20:34:24;;;;;;;9.10;6.40;;;;;;;9.13;74.10;99158.76;226787;1272;22746;-74
2024/02/16 20:39:27;;;;;;;8.90;6.60;;;;;;;9.14;73.83;99158.33;226758;1274;22539;-73
2024/02/16 20:44:29;;;;;;;10.00;6.80;;;;;;;9.14;73.91;99160.44;226778;1274;22563;-73
2024/02/16 20:49:31;;;;;;;10.30;6.60;;;;;;;9.14;73.99;99163.41;226752;1275;22780;-74
2024/02/16 20:54:34;;;;;;;9.60;6.80;;;;;;;9.16;73.90;99161.42;226787;1275;22553;-73
2024/02/16 20:59:36;;;;;;;9.00;6.30;;;;;;;9.16;73.83;99154.25;226814;1271;22542;-73
2024/02/16 21:04:39;;;;;;;8.30;6.30;;;;;;;9.17;73.50;99160.34;226724;1275;22575;-74
2024/02/16 21:09:41;;;;;;;10.00;6.30;;;;;;;9.18;73.69;99151.90;226813;1274;25252;-74
2024/02/16 21:14:44;;;;;;;8.60;5.90;;;;;;;9.20;73.60;99156.63;226702;1275;22554;-74
2024/02/16 21:19:46;;;;;;;9.40;6.20;;;;;;;9.23;73.55;99153.45;226572;1274;22602;-75
2024/02/16 21:24:50;;;;;;;12.80;6.00;;;;;;;9.25;73.39;99157.49;226824;1272;22554;-73
2024/02/16 21:29:52;;;;;;;9.10;6.30;;;;;;;9.28;73.07;99157.65;226840;1275;22560;-73
2024/02/16 21:34:54;;;;;;;9.80;6.30;;;;;;;9.31;73.18;99158.80;226692;1273;25271;-73
2024/02/16 21:39:57;;;;;;;9.50;6.90;;;;;;;9.31;72.67;99163.13;226757;1275;25290;-73
2024/02/16 21:44:59;;;;;;;9.90;7.10;;;;;;;9.32;72.48;99161.11;226732;1275;22595;-74
2024/02/16 21:50:01;;;;;;;11.50;7.20;;;;;;;9.33;72.23;99163.21;226834;1272;22542;-74
2024/02/16 21:55:04;;;;;;;10.70;7.80;;;;;;;9.34;72.35;99159.48;226718;1274;23475;-74
2024/02/16 22:00:06;;;;;;;10.20;7.10;;;;;;;9.32;72.43;99163.15;226697;1255;22555;-73
2024/02/16 22:05:09;;;;;;;9.90;7.00;;;;;;;9.30;71.94;99162.89;226618;1275;22570;-74
2024/02/16 22:10:11;;;;;;;8.80;7.00;;;;;;;9.28;72.26;99161.57;226632;1274;25794;-74
2024/02/16 22:15:13;;;;;;;10.80;6.90;;;;;;;9.26;72.27;99163.92;226675;1270;22565;-72
2024/02/16 22:20:15;;;;;;;10.50;7.50;;;;;;;9.23;72.05;99158.23;226636;1275;22589;-74
2024/02/16 22:25:18;;;;;;;10.20;7.80;;;;;;;9.22;71.84;99166.46;226808;1275;22559;-73
2024/02/16 22:30:20;;;;;;;12.00;7.70;;;;;;;9.19;72.06;99169.06;226850;1275;25719;-73
2024/02/16 22:35:22;;;;;;;8.80;7.10;;;;;;;9.15;71.93;99176.55;226683;1273;22579;-74
2024/02/16 22:40:24;;;;;;;9.00;6.90;;;;;;;9.11;71.91;99184.46;226693;1275;25300;-73
2024/02/16 22:45:26;;;;;;;12.20;8.40;;;;;;;9.08;71.87;99177.41;226678;1275;25193;-73
2024/02/16 22:50:28;;;;;;;9.80;7.10;;;;;;;9.03;71.77;99177.47;226927;1275;22551;-73
2024/02/16 22:55:30;;;;;;;12.90;8.50;;;;;;;8.98;71.47;99184.22;226852;1273;22554;-74
2024/02/16 23:00:33;;;;;;;9.90;7.80;;;;;;;8.92;71.87;99187.89;226855;1273;22548;-74
2024/02/16 23:05:37;;;;;;;9.80;8.20;;;;;;;8.87;72.09;99175.06;226867;1274;25406;-74
2024/02/16 23:10:41;;;;;;;11.40;8.30;;;;;;;8.82;72.13;99178.72;226690;1270;22566;-74
2024/02/16 23:15:43;;;;;;;11.50;7.80;;;;;;;8.77;72.08;99177.86;226829;1267;22541;-74
2024/02/16 23:20:46;;;;;;;10.50;8.60;;;;;;;8.73;72.50;99183.42;226726;1273;24229;-74
2024/02/16 23:25:49;;;;;;;11.50;8.30;;;;;;;8.69;72.47;99185.66;226862;1274;23306;-73